Time;durP1;ratioP1;P1;durP2;ratioP2;P2;SDS_P1;SDS_P2;PMS_P1;PMS_P2;Temp;Humidity;BMP_temperature;BMP_pressure;BME280_temperature;BME280_humidity;BME280_pressure;Samples;Min_cycle;Max_cycle;Signal;HPM_P1;HPM_P2
2022/03/19 00:01:01;;;;;;;;;;;;;;;1.11;45.45;103687.92;1632923;87;20588;-73
2022/03/19 00:03:27;;;;;;;;;;;;;;;1.11;45.50;103686.64;1638208;87;20165;-73
2022/03/19 00:05:53;;;;;;;;;;;;;;;1.13;45.55;103683.81;1634927;86;20253;-73
2022/03/19 00:08:19;;;;;;;;;;;;;;;1.15;45.53;103676.78;1611985;87;20665;-72
2022/03/19 00:10:46;;;;;;;;;;;;;;;1.18;45.68;103683.38;1622508;87;20717;-73
2022/03/19 00:13:12;;;;;;;;;;;;;;;1.21;45.67;103681.04;1634607;87;20166;-73
2022/03/19 00:15:39;;;;;;;;;;;;;;;1.26;45.76;103680.09;1655958;85;20213;-73
2022/03/19 00:18:05;;;;;;;;;;;;;;;1.31;45.89;103678.76;1655654;86;20562;-73
2022/03/19 00:20:32;;;;;;;;;;;;;;;1.38;45.94;103674.98;1658850;86;20153;-72
2022/03/19 00:22:58;;;;;;;;;;;;;;;1.43;45.95;103675.80;1661863;86;20626;-72
2022/03/19 00:25:23;;;;;;;;;;;;;;;1.48;46.00;103674.84;1661315;86;20878;-73
2022/03/19 00:27:50;;;;;;;;;;;;;;;1.52;46.10;103679.00;1643978;86;20905;-72
2022/03/19 00:30:15;;;;;;;;;;;;;;;1.57;46.15;103668.70;1658178;86;20813;-72
2022/03/19 00:32:41;;;;;;;;;;;;;;;1.62;46.21;103663.91;1634480;86;20515;-73
2022/03/19 00:35:08;;;;;;;;;;;;;;;1.66;46.23;103664.23;1618090;87;20965;-72
2022/03/19 00:37:46;;;;;;;;;;;;;;;1.69;46.41;103658.46;1634590;87;20207;-73
2022/03/19 00:40:13;;;;;;;;;;;;;;;1.75;46.38;103656.72;1643975;86;20229;-72
2022/03/19 00:42:41;;;;;;;;;;;;;;;1.77;46.48;103653.49;1661091;86;20245;-73
2022/03/19 00:45:08;;;;;;;;;;;;;;;1.80;46.56;103653.70;1645831;86;20183;-72
2022/03/19 00:47:35;;;;;;;;;;;;;;;1.86;46.67;103654.52;1656813;86;20433;-73
2022/03/19 00:50:02;;;;;;;;;;;;;;;1.91;46.74;103654.44;1661202;86;20658;-73
2022/03/19 00:52:28;;;;;;;;;;;;;;;1.96;46.72;103651.81;1638482;86;20384;-73
2022/03/19 00:54:53;;;;;;;;;;;;;;;2.01;46.86;103656.84;1635127;86;20246;-73
2022/03/19 00:57:19;;;;;;;;;;;;;;;2.05;46.91;103648.60;1644815;86;20379;-73
2022/03/19 00:59:45;;;;;;;;;;;;;;;2.11;46.91;103650.26;1659721;86;20209;-73
2022/03/19 01:02:11;;;;;;;;;;;;;;;2.14;46.95;103647.91;1650851;86;20877;-73
2022/03/19 01:04:36;;;;;;;;;;;;;;;2.18;47.14;103647.73;1649023;86;20164;-73
2022/03/19 01:07:03;;;;;;;;;;;;;;;2.23;47.25;103650.20;1660582;86;20572;-73
2022/03/19 01:09:29;;;;;;;;;;;;;;;2.27;47.44;103642.84;1658586;86;20861;-73
2022/03/19 01:11:55;;;;;;;;;;;;;;;2.31;47.50;103638.44;1652468;86;20227;-73
2022/03/19 01:14:21;;;;;;;;;;;;;;;2.39;47.90;103638.05;1663416;85;20226;-73
2022/03/19 01:16:47;;;;;;;;;;;;;;;2.45;48.32;103631.69;1672928;84;20932;-73
2022/03/19 01:19:14;;;;;;;;;;;;;;;2.48;48.11;103629.72;1651312;85;20824;-72
2022/03/19 01:21:41;;;;;;;;;;;;;;;2.54;48.47;103637.39;1653094;85;20179;-73
2022/03/19 01:24:07;;;;;;;;;;;;;;;2.62;48.68;103626.36;1660615;85;20240;-72
2022/03/19 01:26:32;;;;;;;;;;;;;;;2.71;49.11;103628.62;1666561;84;20934;-73
2022/03/19 01:28:58;;;;;;;;;;;;;;;2.81;49.13;103622.93;1678662;84;20293;-73
2022/03/19 01:31:26;;;;;;;;;;;;;;;2.90;49.56;103628.62;1666825;85;20231;-73
2022/03/19 01:33:53;;;;;;;;;;;;;;;2.97;49.42;103623.13;1680492;84;20451;-73
2022/03/19 01:36:19;;;;;;;;;;;;;;;3.06;49.39;103619.37;1680188;84;20161;-73
2022/03/19 01:38:44;;;;;;;;;;;;;;;3.12;49.34;103623.17;1673867;85;20789;-72
2022/03/19 01:41:10;;;;;;;;;;;;;;;3.15;49.21;103613.53;1678328;84;20298;-73
2022/03/19 01:43:37;;;;;;;;;;;;;;;3.17;49.23;103616.67;1669226;84;20352;-73
2022/03/19 01:46:03;;;;;;;;;;;;;;;3.18;49.31;103615.00;1674853;85;20512;-72
2022/03/19 01:48:29;;;;;;;;;;;;;;;3.18;49.37;103615.00;1671332;84;20207;-73
2022/03/19 01:50:55;;;;;;;;;;;;;;;3.19;49.50;103615.09;1678486;84;20351;-73
2022/03/19 01:53:21;;;;;;;;;;;;;;;3.19;49.43;103613.81;1678187;85;20207;-73
2022/03/19 01:55:47;;;;;;;;;;;;;;;3.18;49.52;103615.00;1671989;85;20241;-73
2022/03/19 01:58:13;;;;;;;;;;;;;;;3.19;49.44;103613.81;1672771;85;20155;-73
2022/03/19 02:00:39;;;;;;;;;;;;;;;3.19;49.42;103615.09;1678098;85;20508;-73
2022/03/19 02:03:06;;;;;;;;;;;;;;;3.18;49.68;103608.21;1678481;85;20234;-73
2022/03/19 02:05:32;;;;;;;;;;;;;;;3.17;49.51;103607.72;1673888;85;20155;-73
2022/03/19 02:07:58;;;;;;;;;;;;;;;3.16;49.62;103602.12;1651135;85;20162;-73
2022/03/19 02:10:24;;;;;;;;;;;;;;;3.16;49.59;103606.34;1663848;85;20246;-73
2022/03/19 02:12:52;;;;;;;;;;;;;;;3.16;49.67;103599.95;1678548;85;20211;-73
2022/03/19 02:15:18;;;;;;;;;;;;;;;3.15;49.73;103599.47;1669414;84;20211;-73
2022/03/19 02:17:44;;;;;;;;;;;;;;;3.13;49.80;103600.65;1672054;85;20205;-73
2022/03/19 02:20:16;;;;;;;;;;;;;;;3.13;50.10;103603.60;1662261;85;20474;-73
2022/03/19 02:25:34;;;;;;;;;;;;;;;3.12;50.08;103597.60;1651264;85;20229;-72
2022/03/19 02:27:57;;;;;;;;;;;;;;;3.13;50.18;103600.65;1660239;85;20370;-72
2022/03/19 02:30:22;;;;;;;;;;;;;;;3.12;50.22;103600.59;1676649;85;20270;-73
2022/03/19 02:32:51;;;;;;;;;;;;;;;3.12;50.53;103600.16;1657474;85;20274;-73
2022/03/19 02:35:19;;;;;;;;;;;;;;;3.14;50.72;103601.53;1678709;85;20215;-73
2022/03/19 02:37:47;;;;;;;;;;;;;;;3.14;50.68;103604.97;1671678;85;20198;-73
2022/03/19 02:40:15;;;;;;;;;;;;;;;3.16;51.16;103604.67;1651066;85;20222;-73
2022/03/19 02:42:41;;;;;;;;;;;;;;;3.20;51.63;103605.75;1650978;86;20626;-73
2022/03/19 02:45:08;;;;;;;;;;;;;;;3.24;51.70;103603.88;1656899;85;20207;-73
2022/03/19 02:47:56;;;;;;;;;;;;;;;3.25;51.60;103603.08;1676817;85;20200;-73
2022/03/19 02:50:03;;;;;;;;;;;;;;;3.26;51.70;103612.52;1679696;84;20136;-73
2022/03/19 02:52:28;;;;;;;;;;;;;;;3.26;51.57;103608.69;1691672;84;20156;-73
2022/03/19 02:54:54;;;;;;;;;;;;;;;3.26;51.71;103611.24;1679515;85;20594;-73
2022/03/19 02:57:20;;;;;;;;;;;;;;;3.25;51.68;103610.36;1679860;85;20479;-73
2022/03/19 02:59:46;;;;;;;;;;;;;;;3.25;51.79;103615.47;1674970;84;20259;-73
2022/03/19 03:02:11;;;;;;;;;;;;;;;3.22;51.74;103619.13;1661592;85;20218;-73
2022/03/19 03:04:37;;;;;;;;;;;;;;;3.19;51.55;103622.77;1678522;85;21284;-73
2022/03/19 03:07:04;;;;;;;;;;;;;;;3.16;52.28;103627.69;1678204;85;20235;-73
2022/03/19 03:09:33;;;;;;;;;;;;;;;3.12;52.00;103629.98;1671374;85;20486;-72
2022/03/19 03:12:01;;;;;;;;;;;;;;;3.08;52.68;103626.35;1668678;85;20218;-72
2022/03/19 03:14:27;;;;;;;;;;;;;;;3.04;52.44;103618.00;1676379;85;20211;-72
2022/03/19 03:16:58;;;;;;;;;;;;;;;2.99;52.49;103626.66;1661915;84;20252;-72
2022/03/19 03:19:24;;;;;;;;;;;;;;;2.95;52.73;103627.64;1661041;86;20164;-72
2022/03/19 03:21:49;;;;;;;;;;;;;;;2.91;52.56;103630.40;1655908;86;20211;-72
2022/03/19 03:24:15;;;;;;;;;;;;;;;2.88;53.20;103631.88;1643141;86;21394;-72
2022/03/19 03:26:44;;;;;;;;;;;;;;;2.81;52.76;103634.43;1642905;87;20186;-73
2022/03/19 03:29:19;;;;;;;;;;;;;;;2.76;52.88;103643.47;1658492;86;20139;-73
2022/03/19 03:31:45;;;;;;;;;;;;;;;2.70;53.02;103637.08;1644214;86;20176;-73
2022/03/19 03:34:11;;;;;;;;;;;;;;;2.64;52.54;103635.89;1662917;86;20176;-73
2022/03/19 03:36:36;;;;;;;;;;;;;;;2.61;53.01;103638.25;1658859;86;20176;-73
2022/03/19 03:39:02;;;;;;;;;;;;;;;2.57;52.96;103643.09;1637444;86;20250;-73
2022/03/19 03:41:28;;;;;;;;;;;;;;;2.52;52.84;103641.52;1642806;86;20970;-73
2022/03/19 03:43:54;;;;;;;;;;;;;;;2.48;52.71;103644.66;1646921;85;316468;-73
2022/03/19 03:46:20;;;;;;;;;;;;;;;2.44;53.27;103650.34;1664156;85;20194;-73
2022/03/19 03:48:46;;;;;;;;;;;;;;;2.39;52.98;103641.89;1648965;85;20174;-73
2022/03/19 03:51:12;;;;;;;;;;;;;;;2.33;53.21;103651.30;1670400;84;20260;-73
2022/03/19 03:53:39;;;;;;;;;;;;;;;2.28;53.70;103652.27;1660282;84;20195;-72
2022/03/19 03:56:05;;;;;;;;;;;;;;;2.21;53.58;103661.58;1657144;85;20127;-72
2022/03/19 03:58:32;;;;;;;;;;;;;;;2.15;53.78;103657.34;1677354;84;20216;-72
2022/03/19 04:00:58;;;;;;;;;;;;;;;2.11;53.59;103660.47;1676639;84;20475;-72
2022/03/19 04:03:25;;;;;;;;;;;;;;;2.08;53.33;103668.34;1664761;84;20158;-72
2022/03/19 04:05:51;;;;;;;;;;;;;;;2.08;53.89;103668.34;1677051;85;20201;-72
2022/03/19 04:08:17;;;;;;;;;;;;;;;2.06;53.97;103663.14;1654970;85;20180;-72
2022/03/19 04:10:43;;;;;;;;;;;;;;;2.04;53.05;103662.53;1658200;85;20172;-72
2022/03/19 04:13:09;;;;;;;;;;;;;;;2.03;53.81;103668.42;1676234;84;20240;-73
2022/03/19 04:15:35;;;;;;;;;;;;;;;2.02;53.59;103664.98;1659264;85;20202;-73
2022/03/19 04:18:04;;;;;;;;;;;;;;;2.01;54.54;103663.21;1678639;84;20516;-73
2022/03/19 04:20:30;;;;;;;;;;;;;;;2.02;54.46;103671.75;1662145;84;20213;-73
2022/03/19 04:23:01;;;;;;;;;;;;;;;2.02;54.31;103670.48;1661112;86;20219;-73
2022/03/19 04:25:27;;;;;;;;;;;;;;;2.02;54.41;103669.20;1641579;85;20181;-73
2022/03/19 04:27:55;;;;;;;;;;;;;;;2.02;54.44;103665.38;1624438;87;20216;-73
2022/03/19 04:30:23;;;;;;;;;;;;;;;2.02;54.32;103667.54;1640328;86;20194;-73
2022/03/19 04:32:52;;;;;;;;;;;;;;;2.02;54.33;103662.44;1646512;87;20108;-73
2022/03/19 04:38:09;;;;;;;;;;;;;;;2.03;55.16;103662.92;1671942;84;20201;-73
2022/03/19 04:40:37;;;;;;;;;;;;;;;2.04;54.63;103662.53;1662390;85;20186;-73
2022/03/19 04:43:03;;;;;;;;;;;;;;;2.08;54.86;103661.54;1676894;84;20438;-73
2022/03/19 04:45:29;;;;;;;;;;;;;;;2.09;54.32;103656.04;1645678;86;20212;-73
2022/03/19 04:47:56;;;;;;;;;;;;;;;2.10;54.58;103657.42;1648578;85;20200;-72
2022/03/19 04:50:22;;;;;;;;;;;;;;;2.11;55.13;103657.03;1661285;85;20156;-72
2022/03/19 04:52:49;;;;;;;;;;;;;;;2.11;55.12;103656.64;1623776;87;20182;-73
2022/03/19 04:55:15;;;;;;;;;;;;;;;2.12;55.26;103654.58;1586491;83;10001163;-73
2022/03/19 04:57:41;;;;;;;;;;;;;;;2.14;55.14;103659.79;1707380;83;20186;-73
2022/03/19 05:00:10;;;;;;;;;;;;;;;2.15;55.12;103652.23;1716301;82;20200;-72
2022/03/19 05:02:37;;;;;;;;;;;;;;;2.17;55.25;103660.88;1709841;82;20126;-72
2022/03/19 05:05:03;;;;;;;;;;;;;;;2.20;55.35;103665.31;1705792;83;20509;-73
2022/03/19 05:07:29;;;;;;;;;;;;;;;2.23;55.49;103664.23;1716201;82;20229;-73
2022/03/19 05:12:41;;;;;;;;;;;;;;;2.27;55.59;103665.82;1694558;82;20352;-73
2022/03/19 05:15:14;;;;;;;;;;;;;;;2.29;55.88;103663.37;1694843;83;20190;-73
2022/03/19 05:17:40;;;;;;;;;;;;;;;2.31;56.09;103668.19;1709037;83;20115;-73
2022/03/19 05:20:07;;;;;;;;;;;;;;;2.34;55.96;103670.95;1700531;83;20118;-73
2022/03/19 05:22:33;;;;;;;;;;;;;;;2.35;55.75;103667.61;1710954;83;20233;-73
2022/03/19 05:24:59;;;;;;;;;;;;;;;2.38;55.74;103673.31;1692528;83;20165;-73
2022/03/19 05:27:26;;;;;;;;;;;;;;;2.42;56.06;103675.28;1708484;83;20182;-73
2022/03/19 05:29:51;;;;;;;;;;;;;;;2.42;55.72;103674.01;1709689;83;20368;-73
2022/03/19 05:32:18;;;;;;;;;;;;;;;2.45;55.99;103677.66;1697992;82;20311;-73
2022/03/19 05:34:45;;;;;;;;;;;;;;;2.48;55.88;103684.24;1706624;83;20103;-73
2022/03/19 05:37:11;;;;;;;;;;;;;;;2.49;55.74;103682.18;1710967;83;20142;-73
2022/03/19 05:39:37;;;;;;;;;;;;;;;2.51;56.28;103680.61;1688485;83;20554;-73
2022/03/19 05:42:04;;;;;;;;;;;;;;;2.55;56.23;103686.81;1707959;83;20174;-73
2022/03/19 05:44:30;;;;;;;;;;;;;;;2.58;56.38;103691.73;1711107;82;20325;-73
2022/03/19 05:46:59;;;;;;;;;;;;;;;2.60;56.27;103690.13;1707479;83;20553;-73
2022/03/19 05:49:26;;;;;;;;;;;;;;;2.63;56.48;103692.00;1708463;83;20240;-73
2022/03/19 05:51:53;;;;;;;;;;;;;;;2.64;56.22;103693.38;1707799;83;20198;-73
2022/03/19 05:54:23;;;;;;;;;;;;;;;2.69;56.44;103696.63;1710284;83;20226;-73
2022/03/19 05:56:49;;;;;;;;;;;;;;;2.73;56.74;103697.32;1710457;82;20352;-73
2022/03/19 05:59:15;;;;;;;;;;;;;;;2.78;56.69;103699.39;1708354;83;20200;-73
2022/03/19 06:01:42;;;;;;;;;;;;;;;2.85;56.82;103699.40;1700139;83;20213;-73
2022/03/19 06:04:08;;;;;;;;;;;;;;;2.91;56.57;103704.52;1708248;83;20538;-73
2022/03/19 06:06:36;;;;;;;;;;;;;;;2.94;56.74;103704.71;1706734;83;20120;-72
2022/03/19 06:09:03;;;;;;;;;;;;;;;2.98;57.35;103704.52;1702325;83;20103;-72
2022/03/19 06:11:28;;;;;;;;;;;;;;;3.03;57.01;103706.98;1706652;83;20100;-72
2022/03/19 06:13:54;;;;;;;;;;;;;;;3.08;56.97;103708.55;1704661;83;20200;-73
2022/03/19 06:16:22;;;;;;;;;;;;;;;3.13;57.10;103713.14;1700146;82;20906;-73
2022/03/19 06:18:50;;;;;;;;;;;;;;;3.15;57.10;103713.23;1713663;83;20797;-73
2022/03/19 06:21:16;;;;;;;;;;;;;;;3.19;56.95;103712.65;1690053;83;20186;-72
2022/03/19 06:23:41;;;;;;;;;;;;;;;3.22;57.55;103710.29;1699315;82;20132;-72
2022/03/19 06:26:07;;;;;;;;;;;;;;;3.25;57.49;103715.59;1711699;83;20126;-73
2022/03/19 06:28:33;;;;;;;;;;;;;;;3.27;57.04;103712.74;1704188;83;20756;-73
2022/03/19 06:30:59;;;;;;;;;;;;;;;3.29;57.35;103708.22;1662254;84;20192;-73
2022/03/19 06:33:25;;;;;;;;;;;;;;;3.32;57.32;103710.97;1706638;83;20252;-73
2022/03/19 06:38:34;;;;;;;;;;;;;;;3.41;56.96;103714.89;1707422;83;20191;-73
2022/03/19 06:41:00;;;;;;;;;;;;;;;3.43;58.06;103721.87;1704389;82;20896;-73
2022/03/19 06:43:27;;;;;;;;;;;;;;;3.46;57.72;103725.91;1714673;82;20245;-72
2022/03/19 06:45:57;;;;;;;;;;;;;;;3.53;57.26;103725.91;1715062;83;20186;-73
2022/03/19 06:48:21;;;;;;;;;;;;;;;3.58;57.73;103724.13;1709704;83;20128;-73
2022/03/19 06:50:46;;;;;;;;;;;;;;;3.72;57.99;103724.95;1709715;82;20229;-73
2022/03/19 06:53:13;;;;;;;;;;;;;;;4.01;57.91;103717.77;1710491;83;20181;-73
2022/03/19 06:55:39;;;;;;;;;;;;;;;4.33;58.01;103714.16;1673992;84;20186;-73
2022/03/19 06:58:04;;;;;;;;;;;;;;;4.54;57.80;103722.62;1715331;83;20190;-73
2022/03/19 07:00:30;;;;;;;;;;;;;;;4.63;57.79;103724.04;1705726;83;20189;-73
2022/03/19 07:02:56;;;;;;;;;;;;;;;4.83;57.80;103729.00;1708970;83;20654;-73
2022/03/19 07:05:24;;;;;;;;;;;;;;;5.11;58.09;103733.14;1714687;82;20721;-73
2022/03/19 07:07:51;;;;;;;;;;;;;;;5.25;57.41;103737.33;1706353;83;20103;-73
2022/03/19 07:10:19;;;;;;;;;;;;;;;5.35;57.59;103740.02;1712772;83;20130;-73
2022/03/19 07:12:47;;;;;;;;;;;;;;;5.48;57.90;103739.89;1698646;83;20340;-73
2022/03/19 07:15:14;;;;;;;;;;;;;;;5.59;57.59;103743.94;1713702;83;20091;-73
2022/03/19 07:17:40;;;;;;;;;;;;;;;5.57;57.65;103737.43;1715698;82;20338;-73
2022/03/19 07:20:07;;;;;;;;;;;;;;;5.56;57.54;103736.95;1697692;82;20149;-73
2022/03/19 07:22:53;;;;;;;;;;;;;;;5.61;57.89;103732.06;1702023;83;20103;-73
2022/03/19 07:25:21;;;;;;;;;;;;;;;5.73;58.26;103739.11;1713029;81;20084;-73
2022/03/19 07:27:49;;;;;;;;;;;;;;;6.05;58.33;103738.70;1717473;82;20119;-73
2022/03/19 07:30:15;;;;;;;;;;;;;;;6.41;58.08;103740.98;1716605;82;20131;-73
2022/03/19 07:32:41;;;;;;;;;;;;;;;6.73;57.91;103747.76;1715761;82;20265;-73
2022/03/19 07:35:08;;;;;;;;;;;;;;;6.95;58.05;103739.86;1706033;82;20741;-73
2022/03/19 07:37:34;;;;;;;;;;;;;;;7.29;57.89;103740.17;1714675;82;20431;-73
2022/03/19 07:40:00;;;;;;;;;;;;;;;7.46;57.75;103741.86;1716283;82;20123;-73
2022/03/19 07:42:26;;;;;;;;;;;;;;;7.55;57.85;103743.98;1722496;82;20115;-73
2022/03/19 07:44:52;;;;;;;;;;;;;;;7.70;57.82;103743.81;1713294;83;20158;-73
2022/03/19 07:47:19;;;;;;;;;;;;;;;7.77;57.62;103745.85;1713864;82;20492;-73
2022/03/19 07:49:45;;;;;;;;;;;;;;;7.88;57.69;103757.09;1712718;82;20195;-73
2022/03/19 07:52:14;;;;;;;;;;;;;;;7.92;57.74;103753.84;1708024;83;20197;-73
2022/03/19 07:54:40;;;;;;;;;;;;;;;7.94;57.78;103756.08;1701949;82;20186;-73
2022/03/19 07:57:08;;;;;;;;;;;;;;;7.86;57.64;103753.56;1710312;82;20174;-73
2022/03/19 07:59:34;;;;;;;;;;;;;;;7.84;57.74;103758.17;1710316;82;21023;-73
2022/03/19 08:02:00;;;;;;;;;;;;;;;7.93;57.71;103755.61;1709478;83;20127;-73
2022/03/19 08:04:38;;;;;;;;;;;;;;;8.16;57.87;103754.06;1712313;83;20189;-73
2022/03/19 08:07:04;;;;;;;;;;;;;;;8.37;57.83;103757.98;1715172;83;20825;-73
2022/03/19 08:09:30;;;;;;;;;;;;;;;8.45;57.85;103752.75;1712525;82;20170;-73
2022/03/19 08:11:56;;;;;;;;;;;;;;;8.38;57.86;103756.29;1711005;83;20178;-73
2022/03/19 08:14:22;;;;;;;;;;;;;;;8.31;58.01;103752.56;1705157;82;20218;-73
2022/03/19 08:16:48;;;;;;;;;;;;;;;8.29;58.00;103754.20;1708735;83;20191;-73
2022/03/19 08:19:15;;;;;;;;;;;;;;;8.20;57.76;103762.81;1713642;83;20198;-73
2022/03/19 08:21:45;;;;;;;;;;;;;;;8.13;57.79;103765.52;1703626;82;20202;-73
2022/03/19 08:24:14;;;;;;;;;;;;;;;8.06;57.71;103778.06;1721631;82;20454;-73
2022/03/19 08:26:40;;;;;;;;;;;;;;;8.00;57.63;103774.80;1710950;83;20150;-73
2022/03/19 08:29:06;;;;;;;;;;;;;;;8.02;57.77;103780.03;1715531;82;20170;-73
2022/03/19 08:31:33;;;;;;;;;;;;;;;8.04;57.73;103778.41;1713221;82;20218;-73
2022/03/19 08:33:59;;;;;;;;;;;;;;;8.12;57.81;103782.20;1714887;82;20222;-74
2022/03/19 08:36:25;;;;;;;;;;;;;;;8.16;57.59;103787.98;1714580;82;20607;-73
2022/03/19 08:41:44;;;;;;;;;;;;;;;8.01;57.44;103789.86;1673931;84;20206;-73
2022/03/19 08:44:10;;;;;;;;;;;;;;;7.79;57.43;103792.77;1708691;83;20179;-73
2022/03/19 08:46:35;;;;;;;;;;;;;;;7.67;57.45;103789.63;1713342;82;20186;-73
2022/03/19 08:49:01;;;;;;;;;;;;;;;7.67;57.58;103785.76;1713676;82;20190;-73
2022/03/19 08:51:40;;;;;;;;;;;;;;;7.72;57.61;103784.69;1711536;82;20524;-73
2022/03/19 08:54:08;;;;;;;;;;;;;;;7.76;57.47;103792.63;1671455;85;20518;-73
2022/03/19 08:56:36;;;;;;;;;;;;;;;7.73;57.36;103793.77;1671875;85;20184;-73
2022/03/19 08:59:03;;;;;;;;;;;;;;;7.74;57.48;103789.50;1714973;83;20225;-73
2022/03/19 09:01:29;;;;;;;;;;;;;;;7.82;57.65;103793.28;1674523;85;20130;-73
2022/03/19 09:03:55;;;;;;;;;;;;;;;7.92;57.44;103796.77;1712211;83;20166;-73
2022/03/19 09:06:21;;;;;;;;;;;;;;;7.98;57.33;103791.89;1715485;82;20169;-73
2022/03/19 09:08:51;;;;;;;;;;;;;;;8.02;57.18;103786.47;1707151;83;20146;-73
2022/03/19 09:11:18;;;;;;;;;;;;;;;7.99;57.12;103798.81;1709761;83;20592;-73
2022/03/19 09:13:46;;;;;;;;;;;;;;;7.98;57.16;103802.20;1706414;82;20134;-73
2022/03/19 09:16:12;;;;;;;;;;;;;;;7.97;57.07;103795.28;1711277;82;20217;-73
2022/03/19 09:18:38;;;;;;;;;;;;;;;7.91;57.12;103793.30;1710755;83;20186;-73
2022/03/19 09:21:04;;;;;;;;;;;;;;;8.01;57.15;103787.28;1702210;83;20835;-75
2022/03/19 09:23:31;;;;;;;;;;;;;;;8.10;57.09;103785.13;1710077;82;20157;-74
2022/03/19 09:25:57;;;;;;;;;;;;;;;8.18;57.09;103785.94;1694795;83;20516;-74
2022/03/19 09:28:22;;;;;;;;;;;;;;;8.25;57.00;103786.69;1702343;83;20847;-74
2022/03/19 09:30:48;;;;;;;;;;;;;;;8.30;57.00;103786.48;1692394;83;20800;-74
2022/03/19 09:33:14;;;;;;;;;;;;;;;8.38;56.98;103792.39;1710560;83;20757;-74
2022/03/19 09:35:41;;;;;;;;;;;;;;;8.40;56.90;103788.19;1710270;83;20215;-74
2022/03/19 09:38:25;;;;;;;;;;;;;;;8.44;56.74;103791.38;1708818;83;20190;-74
2022/03/19 09:40:51;;;;;;;;;;;;;;;8.49;56.77;103780.44;1710114;83;20801;-74
2022/03/19 09:43:17;;;;;;;;;;;;;;;8.55;56.62;103784.58;1706728;82;20874;-74
2022/03/19 09:45:43;;;;;;;;;;;;;;;8.54;56.60;103782.81;1702893;83;20171;-74
2022/03/19 09:48:11;;;;;;;;;;;;;;;8.60;56.77;103786.06;1693431;83;20189;-74
2022/03/19 09:50:38;;;;;;;;;;;;;;;8.61;56.46;103780.97;1702786;83;20483;-74
2022/03/19 09:53:05;;;;;;;;;;;;;;;8.67;56.55;103785.92;1704419;83;20167;-74
2022/03/19 09:55:33;;;;;;;;;;;;;;;8.67;56.11;103789.79;1702929;82;20383;-73
2022/03/19 09:58:00;;;;;;;;;;;;;;;8.68;56.02;103788.56;1671998;85;20545;-73
2022/03/19 10:00:26;;;;;;;;;;;;;;;8.72;56.11;103783.13;1635053;86;20443;-74
2022/03/19 10:03:01;;;;;;;;;;;;;;;8.71;55.78;103784.83;1670947;85;20200;-74
2022/03/19 10:11:09;;;;;;;;;;;;;;;8.76;55.87;103783.32;1668756;84;20434;-74
2022/03/19 10:13:46;;;;;;;;;;;;;;;8.74;55.50;103777.22;1666320;85;20458;-74
2022/03/19 10:16:25;;;;;;;;;;;;;;;8.80;55.75;103776.19;1657761;85;20551;-74
2022/03/19 10:18:59;;;;;;;;;;;;;;;8.89;55.44;103767.91;1640379;86;20443;-75
2022/03/19 10:21:26;;;;;;;;;;;;;;;8.93;55.18;103769.80;1656699;86;20401;-76
2022/03/19 10:23:52;;;;;;;;;;;;;;;8.96;55.38;103767.34;1643046;87;20456;-77
2022/03/19 10:26:30;;;;;;;;;;;;;;;9.02;55.22;103765.43;1664048;84;20388;-76
2022/03/19 10:29:06;;;;;;;;;;;;;;;9.04;55.18;103774.12;1699871;83;20493;-76
2022/03/19 10:31:40;;;;;;;;;;;;;;;9.02;54.37;103774.05;1704379;82;20105;-78
2022/03/19 10:34:08;;;;;;;;;;;;;;;9.03;54.59;103771.95;1713017;83;20119;-77
2022/03/19 10:36:41;;;;;;;;;;;;;;;9.04;54.13;103773.71;1708196;82;20415;-77
2022/03/19 10:39:19;;;;;;;;;;;;;;;9.07;54.12;103767.38;1662665;84;20112;-77
2022/03/19 10:41:48;;;;;;;;;;;;;;;9.09;54.23;103767.44;1710969;83;20123;-76
2022/03/19 10:44:19;;;;;;;;;;;;;;;9.13;54.08;103770.21;1714079;83;20450;-76
2022/03/19 10:46:56;;;;;;;;;;;;;;;9.17;54.43;103760.48;1709829;83;20412;-76
2022/03/19 10:49:26;;;;;;;;;;;;;;;9.25;54.11;103762.08;1706417;82;20103;-77
2022/03/19 10:51:54;;;;;;;;;;;;;;;9.26;53.57;103762.55;1709978;82;20107;-78
2022/03/19 10:54:20;;;;;;;;;;;;;;;9.28;53.61;103773.83;1709582;82;20439;-78
2022/03/19 10:56:47;;;;;;;;;;;;;;;9.27;53.00;103768.19;1708924;83;20597;-78
2022/03/19 10:59:13;;;;;;;;;;;;;;;9.26;53.15;103758.27;1668747;84;20531;-78
2022/03/19 11:01:41;;;;;;;;;;;;;;;9.32;52.93;103767.08;1652198;85;20441;-77
2022/03/19 11:04:09;;;;;;;;;;;;;;;9.34;52.63;103765.44;1634924;86;20420;-77
2022/03/19 11:06:38;;;;;;;;;;;;;;;9.35;52.72;103755.58;1636642;87;20454;-78
2022/03/19 11:09:06;;;;;;;;;;;;;;;9.36;52.52;103755.61;1636722;85;20408;-79
2022/03/19 11:11:39;;;;;;;;;;;;;;;9.40;52.42;103766.53;1657250;85;20168;-79
2022/03/19 11:14:05;;;;;;;;;;;;;;;9.41;52.60;103743.75;1654831;86;20718;-78
2022/03/19 11:16:34;;;;;;;;;;;;;;;9.42;51.98;103741.64;1660406;86;20448;-78
2022/03/19 11:19:02;;;;;;;;;;;;;;;9.47;51.92;103754.73;1708983;83;20423;-78
2022/03/19 11:21:31;;;;;;;;;;;;;;;9.46;51.76;103742.64;1707358;83;20143;-78
2022/03/19 11:24:00;;;;;;;;;;;;;;;9.46;51.82;103746.11;1710892;82;20415;-78
2022/03/19 11:26:29;;;;;;;;;;;;;;;9.52;51.48;103734.72;1708340;82;20099;-79
2022/03/19 11:28:56;;;;;;;;;;;;;;;9.50;51.33;103732.90;1704019;82;20276;-79
2022/03/19 11:31:28;;;;;;;;;;;;;;;9.49;51.33;103735.02;1708517;82;20163;-79
2022/03/19 11:34:01;;;;;;;;;;;;;;;9.47;50.51;103736.66;1700816;82;20545;-79
2022/03/19 11:36:27;;;;;;;;;;;;;;;9.56;50.76;103726.27;1709795;83;33640;-79
2022/03/19 11:38:54;;;;;;;;;;;;;;;9.63;50.69;103729.55;1703272;83;20229;-79
2022/03/19 11:41:23;;;;;;;;;;;;;;;9.68;50.74;103728.84;1703398;83;20185;-79
2022/03/19 11:43:50;;;;;;;;;;;;;;;9.69;50.65;103731.89;1699944;82;20150;-78
2022/03/19 11:46:17;;;;;;;;;;;;;;;9.65;50.55;103727.03;1667171;85;20125;-78
2022/03/19 11:48:50;;;;;;;;;;;;;;;9.62;50.39;103720.45;1670052;84;20469;-78
2022/03/19 11:51:37;;;;;;;;;;;;;;;9.64;49.67;103709.77;1668257;84;20187;-78
2022/03/19 11:54:12;;;;;;;;;;;;;;;9.62;50.04;103717.45;1649594;85;20426;-78
2022/03/19 11:56:44;;;;;;;;;;;;;;;9.66;48.98;103699.08;1667969;84;20570;-78
2022/03/19 11:59:20;;;;;;;;;;;;;;;9.66;49.89;103707.23;1666704;84;20146;-78
2022/03/19 12:02:01;;;;;;;;;;;;;;;9.65;50.06;103709.35;1654150;85;20095;-79
2022/03/19 12:04:55;;;;;;;;;;;;;;;9.72;49.36;103707.05;1655306;86;20202;-79
2022/03/19 12:07:44;;;;;;;;;;;;;;;9.76;48.25;103705.05;1661863;85;20151;-78
2022/03/19 12:10:14;;;;;;;;;;;;;;;9.78;49.45;103707.28;1639927;87;20129;-78
2022/03/19 12:12:42;;;;;;;;;;;;;;;9.78;49.21;103708.98;1671668;85;20109;-78
2022/03/19 12:15:34;;;;;;;;;;;;;;;9.78;49.27;103697.36;1653337;85;20425;-78
2022/03/19 12:18:22;;;;;;;;;;;;;;;9.82;49.20;103694.94;1670945;85;20208;-78
2022/03/19 12:20:50;;;;;;;;;;;;;;;9.91;48.94;103695.24;1643291;85;20196;-78
2022/03/19 12:23:16;;;;;;;;;;;;;;;9.93;48.39;103701.34;1623472;85;20361;-78
2022/03/19 12:25:48;;;;;;;;;;;;;;;9.93;48.85;103701.34;1618716;87;20209;-78
2022/03/19 12:28:17;;;;;;;;;;;;;;;9.98;48.63;103695.05;1644365;86;20187;-79
2022/03/19 12:30:44;;;;;;;;;;;;;;;9.99;48.56;103698.52;1672225;85;20199;-79
2022/03/19 12:33:10;;;;;;;;;;;;;;;9.98;48.42;103695.46;1644106;87;20413;-79
2022/03/19 12:35:42;;;;;;;;;;;;;;;10.00;48.51;103701.16;1677591;85;20106;-79
2022/03/19 12:38:08;;;;;;;;;;;;;;;10.08;48.18;103703.61;1639324;87;20139;-79
2022/03/19 12:43:20;;;;;;;;;;;;;;;10.13;48.00;103700.77;1677423;84;20110;-79
2022/03/19 12:45:49;;;;;;;;;;;;;;;10.15;48.14;103698.23;1644800;86;20125;-79
2022/03/19 12:48:20;;;;;;;;;;;;;;;10.24;48.17;103698.59;1673507;85;20120;-79
2022/03/19 12:50:48;;;;;;;;;;;;;;;10.26;48.08;103695.64;1648839;85;20123;-79
2022/03/19 12:53:14;;;;;;;;;;;;;;;10.28;48.13;103700.46;1671626;85;20097;-78
2022/03/19 12:55:40;;;;;;;;;;;;;;;10.28;47.88;103697.87;1670199;84;20586;-79
2022/03/19 12:58:26;;;;;;;;;;;;;;;10.24;47.82;103696.89;1674178;84;20155;-79
2022/03/19 13:00:55;;;;;;;;;;;;;;;10.19;47.37;103695.84;1615318;87;20158;-79
2022/03/19 13:03:30;;;;;;;;;;;;;;;10.16;47.41;103705.17;1677719;85;20436;-79
2022/03/19 13:05:56;;;;;;;;;;;;;;;10.13;46.93;103680.50;1675743;84;20132;-79
2022/03/19 13:08:21;;;;;;;;;;;;;;;10.15;47.15;103704.29;1642454;85;20159;-79
2022/03/19 13:10:52;;;;;;;;;;;;;;;10.17;47.06;103690.12;1674012;84;20219;-80